sensor_id;sensor_type;location;lat;lon;timestamp;pressure;altitude;pressure_sealevel;temperature;humidity
26635;BME280;14490;54.208;37.686;2023-08-12T00:00:14;99192.16;;;20.89;100.00
26635;BME280;14490;54.208;37.686;2023-08-12T00:02:42;99150.13;;;20.68;100.00
26635;BME280;14490;54.208;37.686;2023-08-12T00:05:24;99185.25;;;20.93;100.00
26635;BME280;14490;54.208;37.686;2023-08-12T00:08:00;99182.50;;;20.93;100.00
26635;BME280;14490;54.208;37.686;2023-08-12T00:10:34;99162.44;;;20.86;100.00
26635;BME280;14490;54.208;37.686;2023-08-12T00:13:01;99156.81;;;20.87;100.00
26635;BME280;14490;54.208;37.686;2023-08-12T00:15:29;99176.88;;;21.01;100.00
26635;BME280;14490;54.208;37.686;2023-08-12T00:17:56;99186.19;;;21.06;100.00
26635;BME280;14490;54.208;37.686;2023-08-12T00:20:25;99177.22;;;21.12;100.00
26635;BME280;14490;54.208;37.686;2023-08-12T00:22:52;99184.41;;;21.20;100.00
26635;BME280;14490;54.208;37.686;2023-08-12T00:25:19;99188.47;;;21.24;100.00
26635;BME280;14490;54.208;37.686;2023-08-12T00:27:47;99129.94;;;20.97;100.00
26635;BME280;14490;54.208;37.686;2023-08-12T00:30:15;99177.78;;;21.36;100.00
26635;BME280;14490;54.208;37.686;2023-08-12T00:32:42;99165.38;;;21.40;100.00
26635;BME280;14490;54.208;37.686;2023-08-12T00:35:09;99168.31;;;21.38;100.00
26635;BME280;14490;54.208;37.686;2023-08-12T00:37:38;99175.53;;;21.46;100.00
26635;BME280;14490;54.208;37.686;2023-08-12T00:40:06;99162.25;;;21.49;100.00
26635;BME280;14490;54.208;37.686;2023-08-12T00:42:35;99151.97;;;21.51;100.00
26635;BME280;14490;54.208;37.686;2023-08-12T00:45:02;99138.69;;;21.48;100.00
26635;BME280;14490;54.208;37.686;2023-08-12T00:47:43;99150.50;;;21.55;100.00
26635;BME280;14490;54.208;37.686;2023-08-12T00:50:12;99145.63;;;21.51;100.00
26635;BME280;14490;54.208;37.686;2023-08-12T00:52:42;99145.66;;;21.57;100.00
26635;BME280;14490;54.208;37.686;2023-08-12T00:55:09;99142.72;;;21.59;100.00
26635;BME280;14490;54.208;37.686;2023-08-12T00:57:37;99136.81;;;21.62;100.00
26635;BME280;14490;54.208;37.686;2023-08-12T01:00:06;99141.91;;;21.65;100.00
26635;BME280;14490;54.208;37.686;2023-08-12T01:02:34;99136.41;;;21.65;100.00
26635;BME280;14490;54.208;37.686;2023-08-12T01:05:02;99135.38;;;21.66;100.00
26635;BME280;14490;54.208;37.686;2023-08-12T01:07:30;99135.16;;;21.67;100.00
26635;BME280;14490;54.208;37.686;2023-08-12T01:10:00;99132.19;;;21.62;100.00
26635;BME280;14490;54.208;37.686;2023-08-12T01:12:31;99110.66;;;21.53;100.00
26635;BME280;14490;54.208;37.686;2023-08-12T01:15:05;99130.50;;;21.55;100.00
26635;BME280;14490;54.208;37.686;2023-08-12T01:17:38;99101.53;;;21.33;100.00
26635;BME280;14490;54.208;37.686;2023-08-12T01:20:09;99097.06;;;21.25;100.00
26635;BME280;14490;54.208;37.686;2023-08-12T01:22:41;99139.72;;;21.47;100.00
26635;BME280;14490;54.208;37.686;2023-08-12T01:25:13;99138.44;;;21.43;100.00
26635;BME280;14490;54.208;37.686;2023-08-12T01:27:40;99155.25;;;21.40;100.00
26635;BME280;14490;54.208;37.686;2023-08-12T01:30:08;99139.84;;;21.33;100.00
26635;BME280;14490;54.208;37.686;2023-08-12T01:32:41;99144.72;;;21.37;100.00
26635;BME280;14490;54.208;37.686;2023-08-12T01:35:15;99153.78;;;21.38;100.00
26635;BME280;14490;54.208;37.686;2023-08-12T01:37:45;99126.97;;;21.27;100.00
26635;BME280;14490;54.208;37.686;2023-08-12T01:40:15;99148.53;;;21.36;100.00
26635;BME280;14490;54.208;37.686;2023-08-12T01:42:44;99134.97;;;21.28;100.00
26635;BME280;14490;54.208;37.686;2023-08-12T01:45:12;99144.28;;;21.34;100.00
26635;BME280;14490;54.208;37.686;2023-08-12T01:47:43;99151.03;;;21.38;100.00
26635;BME280;14490;54.208;37.686;2023-08-12T01:50:10;99144.94;;;21.36;100.00
26635;BME280;14490;54.208;37.686;2023-08-12T01:52:38;99136.28;;;21.32;100.00
26635;BME280;14490;54.208;37.686;2023-08-12T01:55:05;99157.84;;;21.48;100.00
26635;BME280;14490;54.208;37.686;2023-08-12T01:57:34;99162.47;;;21.48;100.00
26635;BME280;14490;54.208;37.686;2023-08-12T02:00:02;99128.47;;;21.29;100.00
26635;BME280;14490;54.208;37.686;2023-08-12T02:02:30;99155.34;;;21.53;100.00
26635;BME280;14490;54.208;37.686;2023-08-12T02:04:58;99154.94;;;21.56;100.00
26635;BME280;14490;54.208;37.686;2023-08-12T02:07:25;99114.44;;;21.45;100.00
26635;BME280;14490;54.208;37.686;2023-08-12T02:09:52;99113.59;;;21.45;100.00
26635;BME280;14490;54.208;37.686;2023-08-12T02:12:19;99114.03;;;21.48;100.00
26635;BME280;14490;54.208;37.686;2023-08-12T02:14:48;99115.47;;;21.44;100.00
26635;BME280;14490;54.208;37.686;2023-08-12T02:17:15;99118.69;;;21.54;100.00
26635;BME280;14490;54.208;37.686;2023-08-12T02:19:43;99068.88;;;21.31;100.00
26635;BME280;14490;54.208;37.686;2023-08-12T02:22:10;99104.38;;;21.59;100.00
26635;BME280;14490;54.208;37.686;2023-08-12T02:24:37;99067.66;;;21.40;100.00
26635;BME280;14490;54.208;37.686;2023-08-12T02:27:05;99073.59;;;21.50;100.00
26635;BME280;14490;54.208;37.686;2023-08-12T02:29:32;99063.66;;;21.36;100.00
26635;BME280;14490;54.208;37.686;2023-08-12T02:32:01;99061.06;;;21.28;100.00
26635;BME280;14490;54.208;37.686;2023-08-12T02:34:28;99062.28;;;21.19;100.00
26635;BME280;14490;54.208;37.686;2023-08-12T02:36:55;99023.63;;;20.88;100.00
26635;BME280;14490;54.208;37.686;2023-08-12T02:39:23;99050.19;;;21.00;100.00
26635;BME280;14490;54.208;37.686;2023-08-12T02:41:50;99035.00;;;20.91;100.00
26635;BME280;14490;54.208;37.686;2023-08-12T02:44:17;99056.50;;;21.01;100.00
26635;BME280;14490;54.208;37.686;2023-08-12T02:46:45;99062.47;;;21.11;100.00
26635;BME280;14490;54.208;37.686;2023-08-12T02:49:13;99059.56;;;21.19;100.00
26635;BME280;14490;54.208;37.686;2023-08-12T02:51:41;99041.50;;;21.24;100.00
26635;BME280;14490;54.208;37.686;2023-08-12T02:54:08;99008.41;;;21.19;100.00
26635;BME280;14490;54.208;37.686;2023-08-12T02:56:35;99007.00;;;21.37;100.00
26635;BME280;14490;54.208;37.686;2023-08-12T02:59:03;99023.44;;;21.43;100.00
26635;BME280;14490;54.208;37.686;2023-08-12T03:01:30;99062.22;;;21.53;100.00
26635;BME280;14490;54.208;37.686;2023-08-12T03:03:58;99071.50;;;21.59;100.00
26635;BME280;14490;54.208;37.686;2023-08-12T03:06:26;99045.00;;;21.66;100.00
26635;BME280;14490;54.208;37.686;2023-08-12T03:08:54;99023.06;;;21.59;100.00
26635;BME280;14490;54.208;37.686;2023-08-12T03:11:21;99039.28;;;21.67;100.00
26635;BME280;14490;54.208;37.686;2023-08-12T03:13:48;99041.84;;;21.69;100.00
26635;BME280;14490;54.208;37.686;2023-08-12T03:16:15;99053.22;;;21.72;100.00
26635;BME280;14490;54.208;37.686;2023-08-12T03:18:43;99048.38;;;21.74;100.00
26635;BME280;14490;54.208;37.686;2023-08-12T03:21:10;99059.34;;;21.74;100.00
26635;BME280;14490;54.208;37.686;2023-08-12T03:23:39;98981.28;;;21.31;100.00
26635;BME280;14490;54.208;37.686;2023-08-12T03:26:07;99002.81;;;21.47;100.00
26635;BME280;14490;54.208;37.686;2023-08-12T03:28:35;99026.25;;;21.69;100.00
26635;BME280;14490;54.208;37.686;2023-08-12T03:31:02;99029.84;;;21.76;100.00
26635;BME280;14490;54.208;37.686;2023-08-12T03:33:29;99007.09;;;21.69;100.00
26635;BME280;14490;54.208;37.686;2023-08-12T03:35:57;99010.88;;;21.68;100.00
26635;BME280;14490;54.208;37.686;2023-08-12T03:38:25;99012.97;;;21.79;100.00
26635;BME280;14490;54.208;37.686;2023-08-12T03:40:54;99005.00;;;21.85;100.00
26635;BME280;14490;54.208;37.686;2023-08-12T03:43:21;99009.03;;;21.89;100.00
26635;BME280;14490;54.208;37.686;2023-08-12T03:45:48;98995.13;;;21.90;100.00
26635;BME280;14490;54.208;37.686;2023-08-12T03:48:16;99011.34;;;21.92;100.00
26635;BME280;14490;54.208;37.686;2023-08-12T03:50:43;99008.41;;;21.93;100.00
26635;BME280;14490;54.208;37.686;2023-08-12T03:53:12;99001.66;;;21.96;100.00
26635;BME280;14490;54.208;37.686;2023-08-12T03:55:39;98995.56;;;21.94;100.00
26635;BME280;14490;54.208;37.686;2023-08-12T03:58:09;98995.34;;;22.02;100.00
26635;BME280;14490;54.208;37.686;2023-08-12T04:00:40;98989.44;;;22.05;100.00
26635;BME280;14490;54.208;37.686;2023-08-12T04:03:08;98933.34;;;21.74;100.00
26635;BME280;14490;54.208;37.686;2023-08-12T04:05:35;98982.69;;;22.14;100.00
26635;BME280;14490;54.208;37.686;2023-08-12T04:08:03;98991.53;;;22.22;100.00
26635;BME280;14490;54.208;37.686;2023-08-12T04:10:30;98981.00;;;22.26;100.00
26635;BME280;14490;54.208;37.686;2023-08-12T04:12:58;98982.88;;;22.32;100.00
26635;BME280;14490;54.208;37.686;2023-08-12T04:15:26;98968.34;;;22.25;100.00
26635;BME280;14490;54.208;37.686;2023-08-12T04:17:53;98987.50;;;22.38;100.00
26635;BME280;14490;54.208;37.686;2023-08-12T04:20:21;98985.63;;;22.45;100.00
26635;BME280;14490;54.208;37.686;2023-08-12T04:22:49;98981.81;;;22.46;100.00
26635;BME280;14490;54.208;37.686;2023-08-12T04:25:16;98953.56;;;22.32;100.00
26635;BME280;14490;54.208;37.686;2023-08-12T04:27:43;98977.81;;;22.42;100.00
26635;BME280;14490;54.208;37.686;2023-08-12T04:30:13;98977.19;;;22.33;100.00
26635;BME280;14490;54.208;37.686;2023-08-12T04:32:42;98962.88;;;22.25;100.00
26635;BME280;14490;54.208;37.686;2023-08-12T04:35:09;98980.78;;;22.34;100.00
26635;BME280;14490;54.208;37.686;2023-08-12T04:37:36;98984.78;;;22.38;100.00
26635;BME280;14490;54.208;37.686;2023-08-12T04:40:05;98973.38;;;22.41;100.00
26635;BME280;14490;54.208;37.686;2023-08-12T04:42:34;98978.00;;;22.41;100.00
26635;BME280;14490;54.208;37.686;2023-08-12T04:45:01;98977.63;;;22.37;100.00
26635;BME280;14490;54.208;37.686;2023-08-12T04:47:29;98983.53;;;22.34;100.00
26635;BME280;14490;54.208;37.686;2023-08-12T04:49:58;99000.59;;;22.36;100.00
26635;BME280;14490;54.208;37.686;2023-08-12T04:52:25;99020.66;;;22.37;100.00
26635;BME280;14490;54.208;37.686;2023-08-12T04:54:53;99035.81;;;22.39;100.00
26635;BME280;14490;54.208;37.686;2023-08-12T04:57:20;99013.25;;;22.24;100.00
26635;BME280;14490;54.208;37.686;2023-08-12T04:59:48;99011.38;;;22.31;100.00
26635;BME280;14490;54.208;37.686;2023-08-12T05:02:15;99052.28;;;22.52;100.00
26635;BME280;14490;54.208;37.686;2023-08-12T05:04:47;99040.47;;;22.58;100.00
26635;BME280;14490;54.208;37.686;2023-08-12T05:07:16;99052.66;;;22.62;100.00
26635;BME280;14490;54.208;37.686;2023-08-12T05:09:43;99049.91;;;22.62;100.00
26635;BME280;14490;54.208;37.686;2023-08-12T05:12:11;99060.91;;;22.62;100.00
26635;BME280;14490;54.208;37.686;2023-08-12T05:14:39;99049.31;;;22.60;100.00
26635;BME280;14490;54.208;37.686;2023-08-12T05:17:07;99046.38;;;22.55;100.00
26635;BME280;14490;54.208;37.686;2023-08-12T05:19:34;99016.44;;;22.34;100.00
26635;BME280;14490;54.208;37.686;2023-08-12T05:22:02;99001.25;;;22.25;100.00
26635;BME280;14490;54.208;37.686;2023-08-12T05:24:31;99036.66;;;22.46;100.00
26635;BME280;14490;54.208;37.686;2023-08-12T05:26:58;99016.44;;;22.34;100.00
26635;BME280;14490;54.208;37.686;2023-08-12T05:29:26;99026.94;;;22.50;100.00
26635;BME280;14490;54.208;37.686;2023-08-12T05:31:53;99035.81;;;22.72;100.00
26635;BME280;14490;54.208;37.686;2023-08-12T05:34:20;99007.09;;;22.74;100.00
26635;BME280;14490;54.208;37.686;2023-08-12T05:36:48;99017.59;;;22.97;100.00
26635;BME280;14490;54.208;37.686;2023-08-12T05:39:15;98978.78;;;22.87;100.00
26635;BME280;14490;54.208;37.686;2023-08-12T05:41:44;99001.06;;;23.10;100.00
26635;BME280;14490;54.208;37.686;2023-08-12T05:44:11;98990.75;;;23.06;100.00
26635;BME280;14490;54.208;37.686;2023-08-12T05:46:39;98994.34;;;23.06;100.00
26635;BME280;14490;54.208;37.686;2023-08-12T05:49:06;98987.00;;;22.94;100.00
26635;BME280;14490;54.208;37.686;2023-08-12T05:51:33;98973.97;;;22.76;100.00
26635;BME280;14490;54.208;37.686;2023-08-12T05:54:00;98969.31;;;22.63;100.00
26635;BME280;14490;54.208;37.686;2023-08-12T05:56:28;98966.00;;;22.48;100.00
26635;BME280;14490;54.208;37.686;2023-08-12T05:58:56;98950.16;;;22.44;100.00
26635;BME280;14490;54.208;37.686;2023-08-12T06:01:27;98951.00;;;22.44;100.00
26635;BME280;14490;54.208;37.686;2023-08-12T06:03:54;98946.38;;;22.38;100.00
26635;BME280;14490;54.208;37.686;2023-08-12T06:06:21;98976.97;;;22.48;100.00
26635;BME280;14490;54.208;37.686;2023-08-12T06:08:49;98965.34;;;22.53;100.00
26635;BME280;14490;54.208;37.686;2023-08-12T06:11:16;98958.59;;;22.55;100.00
26635;BME280;14490;54.208;37.686;2023-08-12T06:13:43;98965.75;;;22.50;100.00
26635;BME280;14490;54.208;37.686;2023-08-12T06:16:12;98943.88;;;22.30;100.00
26635;BME280;14490;54.208;37.686;2023-08-12T06:18:40;98951.91;;;22.18;100.00
26635;BME280;14490;54.208;37.686;2023-08-12T06:21:07;98986.06;;;22.03;100.00
26635;BME280;14490;54.208;37.686;2023-08-12T06:23:35;98991.06;;;21.86;100.00
26635;BME280;14490;54.208;37.686;2023-08-12T06:26:02;98978.00;;;21.68;100.00
26635;BME280;14490;54.208;37.686;2023-08-12T06:28:30;98976.31;;;21.61;100.00
26635;BME280;14490;54.208;37.686;2023-08-12T06:30:57;98967.44;;;21.46;100.00
26635;BME280;14490;54.208;37.686;2023-08-12T06:33:26;98987.66;;;21.51;100.00
26635;BME280;14490;54.208;37.686;2023-08-12T06:35:53;98983.66;;;21.47;100.00
26635;BME280;14490;54.208;37.686;2023-08-12T06:38:21;98943.41;;;21.35;100.00
26635;BME280;14490;54.208;37.686;2023-08-12T06:40:48;98978.81;;;21.56;100.00
26635;BME280;14490;54.208;37.686;2023-08-12T06:43:15;98965.34;;;21.54;100.00
26635;BME280;14490;54.208;37.686;2023-08-12T06:45:42;98968.50;;;21.71;100.00
26635;BME280;14490;54.208;37.686;2023-08-12T06:48:10;98976.94;;;21.83;100.00
26635;BME280;14490;54.208;37.686;2023-08-12T06:54:08;98883.41;;;21.59;100.00
26635;BME280;14490;54.208;37.686;2023-08-12T06:56:35;98969.19;;;22.25;100.00
26635;BME280;14490;54.208;37.686;2023-08-12T06:59:03;98979.72;;;22.35;100.00
26635;BME280;14490;54.208;37.686;2023-08-12T07:01:30;98912.72;;;21.98;100.00
26635;BME280;14490;54.208;37.686;2023-08-12T07:03:58;98977.81;;;22.42;100.00
26635;BME280;14490;54.208;37.686;2023-08-12T07:06:26;98990.69;;;22.35;100.00
26635;BME280;14490;54.208;37.686;2023-08-12T07:08:54;98964.97;;;22.23;100.00
26635;BME280;14490;54.208;37.686;2023-08-12T07:11:21;98981.84;;;22.26;100.00
26635;BME280;14490;54.208;37.686;2023-08-12T07:13:49;98981.84;;;22.20;100.00
26635;BME280;14490;54.208;37.686;2023-08-12T07:16:16;98978.47;;;21.98;100.00
26635;BME280;14490;54.208;37.686;2023-08-12T07:18:43;98988.97;;;21.68;100.00
26635;BME280;14490;54.208;37.686;2023-08-12T07:21:11;98968.25;;;21.33;100.00
26635;BME280;14490;54.208;37.686;2023-08-12T07:23:39;98964.69;;;20.92;100.00
26635;BME280;14490;54.208;37.686;2023-08-12T07:26:07;98983.13;;;20.77;100.00
26635;BME280;14490;54.208;37.686;2023-08-12T07:28:34;98979.28;;;20.64;100.00
26635;BME280;14490;54.208;37.686;2023-08-12T07:31:02;98973.38;;;20.54;100.00
26635;BME280;14490;54.208;37.686;2023-08-12T07:33:29;98959.38;;;20.36;100.00
26635;BME280;14490;54.208;37.686;2023-08-12T07:35:56;98989.91;;;20.46;100.00
26635;BME280;14490;54.208;37.686;2023-08-12T07:38:24;98954.94;;;20.35;100.00
26635;BME280;14490;54.208;37.686;2023-08-12T07:40:53;98951.06;;;20.51;100.00
26635;BME280;14490;54.208;37.686;2023-08-12T07:46:37;98957.81;;;20.61;100.00
26635;BME280;14490;54.208;37.686;2023-08-12T07:52:53;98962.47;;;20.67;100.00
26635;BME280;14490;54.208;37.686;2023-08-12T08:03:15;98958.81;;;21.55;100.00
26635;BME280;14490;54.208;37.686;2023-08-12T08:05:42;98967.66;;;21.70;100.00
26635;BME280;14490;54.208;37.686;2023-08-12T08:08:11;98977.59;;;21.71;100.00
26635;BME280;14490;54.208;37.686;2023-08-12T08:10:38;98985.16;;;21.63;100.00
26635;BME280;14490;54.208;37.686;2023-08-12T08:13:06;98966.16;;;21.35;100.00
26635;BME280;14490;54.208;37.686;2023-08-12T08:15:33;98932.31;;;20.95;100.00
26635;BME280;14490;54.208;37.686;2023-08-12T08:18:00;98917.91;;;20.67;100.00
26635;BME280;14490;54.208;37.686;2023-08-12T08:20:31;98977.53;;;20.85;100.00
26635;BME280;14490;54.208;37.686;2023-08-12T08:22:58;98972.97;;;20.64;100.00
26635;BME280;14490;54.208;37.686;2023-08-12T08:25:25;98969.16;;;20.58;100.00
26635;BME280;14490;54.208;37.686;2023-08-12T08:27:53;98950.59;;;20.47;100.00
26635;BME280;14490;54.208;37.686;2023-08-12T08:30:20;98939.66;;;20.47;100.00
26635;BME280;14490;54.208;37.686;2023-08-12T08:32:48;98972.59;;;20.73;100.00
26635;BME280;14490;54.208;37.686;2023-08-12T08:35:15;98955.38;;;20.80;100.00
26635;BME280;14490;54.208;37.686;2023-08-12T08:37:44;98943.72;;;21.05;100.00
26635;BME280;14490;54.208;37.686;2023-08-12T08:40:11;98969.16;;;21.60;100.00
26635;BME280;14490;54.208;37.686;2023-08-12T08:42:39;98934.38;;;21.73;100.00
26635;BME280;14490;54.208;37.686;2023-08-12T08:45:12;98951.91;;;22.25;100.00
26635;BME280;14490;54.208;37.686;2023-08-12T08:47:42;98941.75;;;22.45;100.00
26635;BME280;14490;54.208;37.686;2023-08-12T08:50:10;98922.72;;;22.50;100.00
26635;BME280;14490;54.208;37.686;2023-08-12T08:52:37;98921.88;;;22.50;100.00
26635;BME280;14490;54.208;37.686;2023-08-12T08:55:09;98919.56;;;22.47;100.00
26635;BME280;14490;54.208;37.686;2023-08-12T08:57:37;98920.59;;;22.65;100.00
26635;BME280;14490;54.208;37.686;2023-08-12T09:00:05;98917.13;;;22.90;100.00
26635;BME280;14490;54.208;37.686;2023-08-12T09:02:35;98937.28;;;23.15;100.00
26635;BME280;14490;54.208;37.686;2023-08-12T09:05:05;98955.34;;;23.29;100.00
26635;BME280;14490;54.208;37.686;2023-08-12T09:07:33;98942.63;;;23.41;100.00
26635;BME280;14490;54.208;37.686;2023-08-12T09:10:02;98968.22;;;23.73;100.00
26635;BME280;14490;54.208;37.686;2023-08-12T09:12:35;98965.06;;;24.01;100.00
26635;BME280;14490;54.208;37.686;2023-08-12T09:15:03;98915.13;;;24.04;100.00
26635;BME280;14490;54.208;37.686;2023-08-12T09:17:32;98944.56;;;24.46;100.00
26635;BME280;14490;54.208;37.686;2023-08-12T09:19:59;98942.47;;;24.60;100.00
26635;BME280;14490;54.208;37.686;2023-08-12T09:22:33;98928.50;;;24.61;100.00
26635;BME280;14490;54.208;37.686;2023-08-12T09:25:02;98872.63;;;24.24;100.00
26635;BME280;14490;54.208;37.686;2023-08-12T09:27:30;98919.47;;;24.54;100.00
26635;BME280;14490;54.208;37.686;2023-08-12T09:30:03;98930.09;;;24.69;100.00
26635;BME280;14490;54.208;37.686;2023-08-12T09:32:31;98915.59;;;24.80;100.00
26635;BME280;14490;54.208;37.686;2023-08-12T09:34:59;98930.03;;;25.12;100.00
26635;BME280;14490;54.208;37.686;2023-08-12T09:37:29;98927.56;;;25.22;100.00
26635;BME280;14490;54.208;37.686;2023-08-12T09:39:57;98932.03;;;25.05;100.00
26635;BME280;14490;54.208;37.686;2023-08-12T09:42:24;98931.50;;;24.96;100.00
26635;BME280;14490;54.208;37.686;2023-08-12T09:44:52;98923.00;;;24.79;100.00
26635;BME280;14490;54.208;37.686;2023-08-12T09:47:25;98893.50;;;24.50;100.00
26635;BME280;14490;54.208;37.686;2023-08-12T09:49:52;98889.78;;;24.20;100.00
26635;BME280;14490;54.208;37.686;2023-08-12T09:52:22;98926.66;;;23.87;100.00
26635;BME280;14490;54.208;37.686;2023-08-12T09:54:50;98964.97;;;23.51;100.00
26635;BME280;14490;54.208;37.686;2023-08-12T09:57:20;98959.06;;;23.10;100.00
26635;BME280;14490;54.208;37.686;2023-08-12T09:59:52;98953.53;;;22.65;100.00
26635;BME280;14490;54.208;37.686;2023-08-12T10:02:21;98986.03;;;22.42;100.00
26635;BME280;14490;54.208;37.686;2023-08-12T10:04:50;98977.00;;;22.09;100.00
26635;BME280;14490;54.208;37.686;2023-08-12T10:07:22;99003.53;;;21.89;100.00
26635;BME280;14490;54.208;37.686;2023-08-12T10:09:50;98997.81;;;21.64;100.00
26635;BME280;14490;54.208;37.686;2023-08-12T10:12:18;98981.34;;;21.51;100.00
26635;BME280;14490;54.208;37.686;2023-08-12T10:14:46;98930.66;;;21.07;100.00
26635;BME280;14490;54.208;37.686;2023-08-12T10:17:14;98986.19;;;21.42;100.00
26635;BME280;14490;54.208;37.686;2023-08-12T10:19:44;98976.88;;;21.43;100.00
26635;BME280;14490;54.208;37.686;2023-08-12T10:22:13;99003.28;;;21.57;100.00
26635;BME280;14490;54.208;37.686;2023-08-12T10:24:42;99005.59;;;21.60;100.00
26635;BME280;14490;54.208;37.686;2023-08-12T10:27:10;98937.47;;;21.18;100.00
26635;BME280;14490;54.208;37.686;2023-08-12T10:29:39;98977.53;;;21.45;100.00
26635;BME280;14490;54.208;37.686;2023-08-12T10:32:09;98936.66;;;21.24;100.00
26635;BME280;14490;54.208;37.686;2023-08-12T10:34:37;99007.09;;;21.76;100.00
26635;BME280;14490;54.208;37.686;2023-08-12T10:37:05;98980.31;;;21.71;100.00
26635;BME280;14490;54.208;37.686;2023-08-12T10:39:35;98975.50;;;21.87;100.00
26635;BME280;14490;54.208;37.686;2023-08-12T10:42:02;99002.28;;;22.04;100.00
26635;BME280;14490;54.208;37.686;2023-08-12T10:44:38;98995.97;;;22.23;100.00
26635;BME280;14490;54.208;37.686;2023-08-12T10:47:08;98940.53;;;22.02;100.00
26635;BME280;14490;54.208;37.686;2023-08-12T10:49:42;98952.13;;;22.17;100.00
26635;BME280;14490;54.208;37.686;2023-08-12T10:52:37;98998.47;;;22.64;100.00
26635;BME280;14490;54.208;37.686;2023-08-12T10:55:19;98852.41;;;21.98;100.00
26635;BME280;14490;54.208;37.686;2023-08-12T10:57:48;98957.69;;;22.81;100.00
26635;BME280;14490;54.208;37.686;2023-08-12T11:00:17;98988.19;;;23.11;100.00
26635;BME280;14490;54.208;37.686;2023-08-12T11:02:49;98986.03;;;23.19;100.00
26635;BME280;14490;54.208;37.686;2023-08-12T11:05:18;98889.78;;;22.70;100.00
26635;BME280;14490;54.208;37.686;2023-08-12T11:07:48;98990.88;;;23.24;100.00
26635;BME280;14490;54.208;37.686;2023-08-12T11:10:24;98984.13;;;23.20;100.00
26635;BME280;14490;54.208;37.686;2023-08-12T11:12:55;98980.75;;;23.18;100.00
26635;BME280;14490;54.208;37.686;2023-08-12T11:15:30;98968.16;;;23.04;100.00
26635;BME280;14490;54.208;37.686;2023-08-12T11:17:59;98933.59;;;22.90;100.00
26635;BME280;14490;54.208;37.686;2023-08-12T11:20:30;98991.69;;;23.31;100.00
26635;BME280;14490;54.208;37.686;2023-08-12T11:22:59;98970.13;;;23.34;100.00
26635;BME280;14490;54.208;37.686;2023-08-12T11:25:28;98962.06;;;23.46;100.00
26635;BME280;14490;54.208;37.686;2023-08-12T11:27:57;98930.84;;;23.41;100.00
26635;BME280;14490;54.208;37.686;2023-08-12T11:30:25;98971.63;;;23.68;100.00
26635;BME280;14490;54.208;37.686;2023-08-12T11:32:53;98970.56;;;23.69;100.00
26635;BME280;14490;54.208;37.686;2023-08-12T11:35:22;98965.91;;;23.70;100.00
26635;BME280;14490;54.208;37.686;2023-08-12T11:37:52;98944.41;;;23.60;100.00
26635;BME280;14490;54.208;37.686;2023-08-12T11:40:23;98959.28;;;23.77;100.00
26635;BME280;14490;54.208;37.686;2023-08-12T11:42:52;98966.84;;;23.88;100.00
26635;BME280;14490;54.208;37.686;2023-08-12T11:45:22;98960.75;;;24.05;100.00
26635;BME280;14490;54.208;37.686;2023-08-12T11:47:51;98957.78;;;24.13;100.00
26635;BME280;14490;54.208;37.686;2023-08-12T11:50:19;98921.47;;;24.04;100.00
26635;BME280;14490;54.208;37.686;2023-08-12T11:52:48;98888.84;;;24.08;100.00
26635;BME280;14490;54.208;37.686;2023-08-12T11:55:16;98941.66;;;24.59;100.00
26635;BME280;14490;54.208;37.686;2023-08-12T11:57:44;98922.16;;;24.79;100.00
26635;BME280;14490;54.208;37.686;2023-08-12T12:00:13;98932.34;;;24.96;100.00
26635;BME280;14490;54.208;37.686;2023-08-12T12:02:46;98907.81;;;24.95;100.00
26635;BME280;14490;54.208;37.686;2023-08-12T12:05:15;98905.31;;;25.05;100.00
26635;BME280;14490;54.208;37.686;2023-08-12T12:07:43;98907.16;;;25.11;100.00
26635;BME280;14490;54.208;37.686;2023-08-12T12:10:13;98874.34;;;25.10;100.00
26635;BME280;14490;54.208;37.686;2023-08-12T12:12:45;98822.56;;;24.70;100.00
26635;BME280;14490;54.208;37.686;2023-08-12T12:15:14;98905.56;;;25.04;100.00
26635;BME280;14490;54.208;37.686;2023-08-12T12:17:42;98903.75;;;24.79;100.00
26635;BME280;14490;54.208;37.686;2023-08-12T12:20:10;98897.78;;;24.64;100.00
26635;BME280;14490;54.208;37.686;2023-08-12T12:22:38;98904.34;;;24.63;100.00
26635;BME280;14490;54.208;37.686;2023-08-12T12:25:07;98900.56;;;24.82;100.00
26635;BME280;14490;54.208;37.686;2023-08-12T12:27:36;98891.47;;;25.12;100.00
26635;BME280;14490;54.208;37.686;2023-08-12T12:30:07;98893.38;;;25.41;100.00
26635;BME280;14490;54.208;37.686;2023-08-12T12:32:35;98837.72;;;25.21;100.00
26635;BME280;14490;54.208;37.686;2023-08-12T12:35:04;98888.53;;;25.66;100.00
26635;BME280;14490;54.208;37.686;2023-08-12T12:37:36;98866.38;;;25.73;100.00
26635;BME280;14490;54.208;37.686;2023-08-12T12:40:04;98877.44;;;25.84;100.00
26635;BME280;14490;54.208;37.686;2023-08-12T12:42:34;98834.16;;;25.73;100.00
26635;BME280;14490;54.208;37.686;2023-08-12T12:45:06;98871.09;;;26.07;100.00
26635;BME280;14490;54.208;37.686;2023-08-12T12:47:34;98845.66;;;25.93;100.00
26635;BME280;14490;54.208;37.686;2023-08-12T12:50:03;98880.22;;;26.07;100.00
26635;BME280;14490;54.208;37.686;2023-08-12T12:52:31;98884.78;;;26.14;100.00
26635;BME280;14490;54.208;37.686;2023-08-12T12:54:58;98861.50;;;26.09;100.00
26635;BME280;14490;54.208;37.686;2023-08-12T12:57:26;98868.94;;;26.21;100.00
26635;BME280;14490;54.208;37.686;2023-08-12T12:59:53;98861.50;;;26.09;100.00
26635;BME280;14490;54.208;37.686;2023-08-12T13:02:22;98884.22;;;26.23;100.00
26635;BME280;14490;54.208;37.686;2023-08-12T13:04:49;98904.69;;;26.27;100.00